createdAt,value
2023-03-27T00:01:32.845Z,100.00
2023-03-27T00:04:00.379Z,100.00
2023-03-27T00:06:27.280Z,100.00
2023-03-27T00:08:55.594Z,100.00
2023-03-27T00:11:25.328Z,100.00
2023-03-27T00:13:54.788Z,100.00
2023-03-27T00:16:25.278Z,99.34
2023-03-27T00:18:52.841Z,99.94
2023-03-27T00:21:20.654Z,100.00
2023-03-27T00:23:47.812Z,99.56
2023-03-27T00:26:15.317Z,99.56
2023-03-27T00:28:42.211Z,99.58
2023-03-27T00:31:16.307Z,99.39
2023-03-27T00:33:43.656Z,99.70
2023-03-27T00:36:15.241Z,99.56
2023-03-27T00:38:48.387Z,98.75
2023-03-27T00:41:20.476Z,99.28
2023-03-27T00:43:48.672Z,98.44
2023-03-27T00:46:15.388Z,98.50
2023-03-27T00:48:46.273Z,98.40
2023-03-27T00:51:13.185Z,98.28
2023-03-27T00:53:40.027Z,97.71
2023-03-27T00:56:07.771Z,97.42
2023-03-27T00:58:46.562Z,96.96
2023-03-27T01:01:18.254Z,96.37
2023-03-27T01:03:50.066Z,96.72
2023-03-27T01:06:19.534Z,96.84
2023-03-27T01:08:46.788Z,96.24
2023-03-27T01:11:44.224Z,96.18
2023-03-27T01:14:35.676Z,96.07
2023-03-27T01:17:39.301Z,96.04
2023-03-27T01:20:44.768Z,95.59
2023-03-27T01:23:59.725Z,96.24
2023-03-27T01:26:35.573Z,96.59
2023-03-27T01:29:15.980Z,95.54
2023-03-27T01:32:07.355Z,95.77
2023-03-27T01:35:02.186Z,95.91
2023-03-27T01:37:38.225Z,96.45
2023-03-27T01:40:09.910Z,96.66
2023-03-27T01:42:47.039Z,96.42
2023-03-27T01:45:25.500Z,96.48
2023-03-27T01:48:29.214Z,95.88
2023-03-27T01:51:01.427Z,95.26
2023-03-27T01:53:37.280Z,95.38
2023-03-27T01:56:26.875Z,94.71
2023-03-27T01:59:03.927Z,94.88
2023-03-27T02:01:38.870Z,94.51
2023-03-27T02:04:10.821Z,93.06
2023-03-27T02:06:40.466Z,93.21
2023-03-27T02:09:07.244Z,93.49
2023-03-27T02:11:39.907Z,93.82
2023-03-27T02:14:12.254Z,93.20
2023-03-27T02:16:46.276Z,92.46
2023-03-27T02:19:35.501Z,92.16
2023-03-27T02:22:02.376Z,92.05
2023-03-27T02:24:29.515Z,91.98
2023-03-27T02:27:04.175Z,91.18
2023-03-27T02:30:05.596Z,91.38
2023-03-27T02:32:54.237Z,91.52
2023-03-27T02:35:44.601Z,91.15
2023-03-27T02:38:13.964Z,92.43
2023-03-27T02:40:40.612Z,91.80
2023-03-27T02:43:14.714Z,91.94
2023-03-27T02:46:06.357Z,91.57
2023-03-27T02:48:35.357Z,92.19
2023-03-27T02:51:07.384Z,91.44
2023-03-27T02:53:42.745Z,91.46
2023-03-27T02:56:11.869Z,92.08
2023-03-27T02:58:50.012Z,92.59
2023-03-27T03:01:19.694Z,92.00
2023-03-27T03:03:53.670Z,92.11
2023-03-27T03:06:21.628Z,92.19
2023-03-27T03:08:49.226Z,91.80
2023-03-27T03:11:15.823Z,92.29
2023-03-27T03:13:42.386Z,91.94
2023-03-27T03:16:10.020Z,91.68
2023-03-27T03:18:36.885Z,91.78
2023-03-27T03:21:04.586Z,92.15
2023-03-27T03:23:31.861Z,91.81
2023-03-27T03:25:58.412Z,91.29
2023-03-27T03:28:26.015Z,91.64
2023-03-27T03:30:53.867Z,91.27
2023-03-27T03:33:21.347Z,91.80
2023-03-27T03:35:50.012Z,92.01
2023-03-27T03:38:25.028Z,92.00
2023-03-27T03:40:58.492Z,91.88
2023-03-27T03:43:27.520Z,92.53
2023-03-27T03:45:54.524Z,92.21
2023-03-27T03:48:22.447Z,92.19
2023-03-27T03:50:49.843Z,91.88
2023-03-27T03:53:19.651Z,92.27
2023-03-27T03:55:46.409Z,92.64
2023-03-27T03:58:14.932Z,92.68
2023-03-27T04:00:41.440Z,92.54
2023-03-27T04:03:09.805Z,91.68
2023-03-27T04:05:40.524Z,92.04
2023-03-27T04:08:07.476Z,91.64
2023-03-27T04:10:36.342Z,91.39
2023-03-27T04:13:04.222Z,91.10
2023-03-27T04:15:30.807Z,91.17
2023-03-27T04:18:00.290Z,90.84
2023-03-27T04:20:26.940Z,89.97
2023-03-27T04:22:54.470Z,90.60
2023-03-27T04:25:23.815Z,90.73
2023-03-27T04:27:53.596Z,90.22
2023-03-27T04:30:24.394Z,89.42
2023-03-27T04:32:52.589Z,88.66
2023-03-27T04:35:20.460Z,89.53
2023-03-27T04:37:48.225Z,89.47
2023-03-27T04:40:18.122Z,88.63
2023-03-27T04:42:45.399Z,87.91
2023-03-27T04:45:23.306Z,87.69
2023-03-27T04:47:49.942Z,87.97
2023-03-27T04:50:17.120Z,88.12
2023-03-27T04:52:44.092Z,87.52
2023-03-27T04:55:12.179Z,87.64
2023-03-27T04:57:39.721Z,87.70
2023-03-27T05:00:16.371Z,88.22
2023-03-27T05:02:43.349Z,88.32
2023-03-27T05:05:10.146Z,88.49
2023-03-27T05:07:37.266Z,88.05
2023-03-27T05:10:05.094Z,88.60
2023-03-27T05:12:32.042Z,88.61
2023-03-27T05:14:59.459Z,88.51
2023-03-27T05:17:26.047Z,88.74
2023-03-27T05:19:52.598Z,88.63
2023-03-27T05:22:19.045Z,88.38
2023-03-27T05:24:45.674Z,88.74
2023-03-27T05:27:12.115Z,89.01
2023-03-27T05:29:46.954Z,88.79
2023-03-27T05:32:14.435Z,88.08
2023-03-27T05:34:41.431Z,88.07
2023-03-27T05:37:07.951Z,88.71
2023-03-27T05:39:37.960Z,88.66
2023-03-27T05:42:04.525Z,88.27
2023-03-27T05:44:31.231Z,88.70
2023-03-27T05:47:01.446Z,88.70
2023-03-27T05:49:31.840Z,88.43
2023-03-27T05:52:02.615Z,88.84
2023-03-27T05:54:29.460Z,89.14
2023-03-27T05:56:56.435Z,89.22
2023-03-27T05:59:22.953Z,89.64
2023-03-27T06:01:49.463Z,89.44
2023-03-27T06:04:17.982Z,89.50
2023-03-27T06:06:45.458Z,89.66
2023-03-27T06:09:12.679Z,89.95
2023-03-27T06:11:40.590Z,89.94
2023-03-27T06:14:07.176Z,90.57
2023-03-27T06:16:37.182Z,90.50
2023-03-27T06:19:04.407Z,91.36
2023-03-27T06:21:31.020Z,91.20
2023-03-27T06:23:57.522Z,91.60
2023-03-27T06:26:24.328Z,92.17
2023-03-27T06:28:50.816Z,92.44
2023-03-27T06:31:20.685Z,92.65
2023-03-27T06:33:47.281Z,92.32
2023-03-27T06:36:14.711Z,92.95
2023-03-27T06:38:41.988Z,93.55
2023-03-27T06:41:08.542Z,93.58
2023-03-27T06:43:35.144Z,93.70
2023-03-27T06:46:03.284Z,94.26
2023-03-27T06:48:30.023Z,94.91
2023-03-27T06:50:56.846Z,95.38
2023-03-27T06:53:27.729Z,95.88
2023-03-27T06:55:55.815Z,95.86
2023-03-27T06:58:23.362Z,95.76
2023-03-27T07:00:50.422Z,95.82
2023-03-27T07:03:19.435Z,95.55
2023-03-27T07:05:46.049Z,95.06
2023-03-27T07:08:23.489Z,94.86
2023-03-27T07:11:03.895Z,94.70
2023-03-27T07:13:38.085Z,94.98
2023-03-27T07:16:05.023Z,94.91
2023-03-27T07:18:31.565Z,94.58
2023-03-27T07:20:58.311Z,93.48
2023-03-27T07:23:25.013Z,94.54
2023-03-27T07:25:52.166Z,94.83
2023-03-27T07:28:19.431Z,94.47
2023-03-27T07:30:46.200Z,94.63
2023-03-27T07:33:13.131Z,94.73
2023-03-27T07:35:48.219Z,93.82
2023-03-27T07:38:16.581Z,93.75
2023-03-27T07:40:46.384Z,93.16
2023-03-27T07:43:16.389Z,93.40
2023-03-27T07:45:42.864Z,92.51
2023-03-27T07:48:14.251Z,92.14
2023-03-27T07:50:40.712Z,92.01
2023-03-27T07:53:07.329Z,92.64
2023-03-27T07:55:36.823Z,92.25
2023-03-27T07:58:04.228Z,92.61
2023-03-27T08:00:32.474Z,91.10
2023-03-27T08:03:10.652Z,91.80
2023-03-27T08:05:38.412Z,92.40
2023-03-27T08:08:05.530Z,91.83
2023-03-27T08:10:32.490Z,90.11
2023-03-27T08:12:59.000Z,90.56
2023-03-27T08:15:25.778Z,89.83
2023-03-27T08:17:54.892Z,89.00
2023-03-27T08:20:23.858Z,89.12
2023-03-27T08:22:52.484Z,89.95
2023-03-27T08:25:19.558Z,88.01
2023-03-27T08:27:46.654Z,87.43
2023-03-27T08:30:16.686Z,87.42
2023-03-27T08:32:43.930Z,86.73
2023-03-27T08:35:10.931Z,87.04
2023-03-27T08:37:37.690Z,87.14
2023-03-27T08:40:11.009Z,88.57
2023-03-27T08:42:42.166Z,89.12
2023-03-27T08:45:36.708Z,89.34
2023-03-27T08:48:09.077Z,88.20
2023-03-27T08:50:46.482Z,87.93
2023-03-27T08:53:41.086Z,88.46
2023-03-27T08:56:13.565Z,86.87
2023-03-27T08:58:43.714Z,85.69
2023-03-27T09:01:45.597Z,86.29
2023-03-27T09:04:44.155Z,83.81
2023-03-27T09:07:31.461Z,81.42
2023-03-27T09:10:09.344Z,81.06
2023-03-27T09:13:05.133Z,80.68
2023-03-27T09:15:36.965Z,81.23
2023-03-27T09:18:24.979Z,81.48
2023-03-27T09:20:59.145Z,82.97
2023-03-27T09:23:34.587Z,82.47
2023-03-27T09:26:16.540Z,82.12
2023-03-27T09:28:59.761Z,78.39
2023-03-27T09:31:30.345Z,77.81
2023-03-27T09:34:00.502Z,79.61
2023-03-27T09:36:29.410Z,82.08
2023-03-27T09:39:02.411Z,85.07
2023-03-27T09:41:33.573Z,82.56
2023-03-27T09:44:09.032Z,80.28
2023-03-27T09:46:40.249Z,79.04
2023-03-27T09:49:21.146Z,76.52
2023-03-27T09:51:53.136Z,74.72
2023-03-27T09:54:21.691Z,74.88
2023-03-27T09:57:01.839Z,76.79
2023-03-27T09:59:33.157Z,76.77
2023-03-27T10:02:09.111Z,76.52
2023-03-27T10:04:36.612Z,76.49
2023-03-27T10:07:08.196Z,77.65
2023-03-27T10:09:37.184Z,79.04
2023-03-27T10:12:15.719Z,79.00
2023-03-27T10:14:50.628Z,80.53
2023-03-27T10:17:34.933Z,77.64
2023-03-27T10:20:24.262Z,83.16
2023-03-27T10:22:54.871Z,90.43
2023-03-27T10:25:29.512Z,91.81
2023-03-27T10:28:19.818Z,91.32
2023-03-27T10:30:47.088Z,89.99
2023-03-27T10:33:13.711Z,87.05
2023-03-27T10:35:44.661Z,85.72
2023-03-27T10:38:18.830Z,87.31
2023-03-27T10:40:49.599Z,84.85
2023-03-27T10:43:25.614Z,80.82
2023-03-27T10:46:00.649Z,76.13
2023-03-27T10:48:33.314Z,72.62
2023-03-27T10:51:05.585Z,73.21
2023-03-27T10:53:43.281Z,74.17
2023-03-27T10:56:34.482Z,71.92
2023-03-27T10:59:14.139Z,68.28
2023-03-27T11:01:48.724Z,66.60
2023-03-27T11:04:20.859Z,66.73
2023-03-27T11:06:50.762Z,66.92
2023-03-27T11:09:38.870Z,67.46
2023-03-27T11:12:10.257Z,68.00
2023-03-27T11:14:59.353Z,71.71
2023-03-27T11:17:32.415Z,73.03
2023-03-27T11:20:13.526Z,74.24
2023-03-27T11:22:51.494Z,73.93
2023-03-27T11:25:39.054Z,70.60
2023-03-27T11:28:23.925Z,71.29
2023-03-27T11:31:12.112Z,71.54
2023-03-27T11:33:50.461Z,68.44
2023-03-27T11:36:39.704Z,68.38
2023-03-27T11:39:15.558Z,68.50
2023-03-27T11:41:47.397Z,69.47
2023-03-27T11:44:13.941Z,68.80
2023-03-27T11:47:09.815Z,76.52
2023-03-27T11:49:39.344Z,86.52
2023-03-27T11:52:19.441Z,92.20
2023-03-27T11:55:06.710Z,91.35
2023-03-27T11:57:49.607Z,92.67
2023-03-27T12:00:19.102Z,93.56
2023-03-27T12:03:02.210Z,93.58
2023-03-27T12:05:43.166Z,91.58
2023-03-27T12:08:24.805Z,92.55
2023-03-27T12:10:54.095Z,93.50
2023-03-27T12:13:28.819Z,92.16
2023-03-27T12:16:38.484Z,96.69
2023-03-27T12:19:30.927Z,100.00
2023-03-27T12:22:09.297Z,100.00
2023-03-27T12:25:00.715Z,99.09
2023-03-27T12:27:34.321Z,97.90
2023-03-27T12:30:39.690Z,100.00
2023-03-27T12:33:16.263Z,100.00
2023-03-27T12:35:50.369Z,100.00
2023-03-27T12:38:51.861Z,100.00
2023-03-27T12:41:28.598Z,100.00
2023-03-27T12:44:04.407Z,100.00
2023-03-27T12:46:34.094Z,100.00
2023-03-27T12:49:07.578Z,100.00
2023-03-27T12:51:42.358Z,100.00
2023-03-27T12:54:32.847Z,100.00
2023-03-27T12:57:24.223Z,100.00
2023-03-27T12:59:56.005Z,100.00
2023-03-27T13:02:34.505Z,100.00
2023-03-27T13:05:26.770Z,100.00
2023-03-27T13:08:20.260Z,100.00
2023-03-27T13:11:03.355Z,100.00
2023-03-27T13:13:58.003Z,100.00
2023-03-27T13:16:42.446Z,100.00
2023-03-27T13:19:30.565Z,100.00
2023-03-27T13:22:03.670Z,100.00
2023-03-27T13:25:02.641Z,100.00
2023-03-27T13:27:59.547Z,100.00
2023-03-27T13:30:48.484Z,100.00
2023-03-27T13:33:35.845Z,100.00
2023-03-27T13:36:20.159Z,100.00
2023-03-27T13:38:52.800Z,100.00
2023-03-27T13:41:51.791Z,97.96
2023-03-27T13:44:28.365Z,96.69
2023-03-27T13:47:33.568Z,98.67
2023-03-27T13:50:31.251Z,97.06
2023-03-27T13:53:37.927Z,97.10
2023-03-27T13:56:22.252Z,95.63
2023-03-27T13:59:19.988Z,95.27
2023-03-27T14:01:55.866Z,94.92
2023-03-27T14:05:00.343Z,92.26
2023-03-27T14:08:06.431Z,91.37
2023-03-27T14:11:10.483Z,89.69
2023-03-27T14:14:02.961Z,88.60
2023-03-27T14:16:50.490Z,92.88
2023-03-27T14:19:36.136Z,95.63
2023-03-27T14:22:10.164Z,100.00
2023-03-27T14:24:44.311Z,99.62
2023-03-27T14:27:16.055Z,100.00
2023-03-27T14:29:42.576Z,100.00
2023-03-27T14:32:17.440Z,100.00
2023-03-27T14:35:02.512Z,97.46
2023-03-27T14:37:32.068Z,96.13
2023-03-27T14:40:01.912Z,95.70
2023-03-27T14:42:32.762Z,93.20
2023-03-27T14:45:21.788Z,93.37
2023-03-27T14:47:55.630Z,93.09
2023-03-27T14:50:23.174Z,89.59
2023-03-27T14:52:54.354Z,88.80
2023-03-27T14:55:24.151Z,86.57
2023-03-27T14:57:55.363Z,85.45
2023-03-27T15:00:24.493Z,86.35
2023-03-27T15:02:54.713Z,82.44
2023-03-27T15:05:22.498Z,80.11
2023-03-27T15:07:50.166Z,82.40
2023-03-27T15:10:22.616Z,80.91
2023-03-27T15:12:49.293Z,82.65
2023-03-27T15:15:34.787Z,87.44
2023-03-27T15:18:05.128Z,96.47
2023-03-27T15:20:34.475Z,99.60
2023-03-27T15:23:23.063Z,100.00
2023-03-27T15:26:02.560Z,100.00
2023-03-27T15:28:36.694Z,100.00
2023-03-27T15:31:05.835Z,100.00
2023-03-27T15:33:47.979Z,98.88
2023-03-27T15:36:28.610Z,99.23
2023-03-27T15:39:03.682Z,98.09
2023-03-27T15:41:32.859Z,98.81
2023-03-27T15:44:05.342Z,99.69
2023-03-27T15:46:47.988Z,100.00
2023-03-27T15:49:25.701Z,100.00
2023-03-27T15:51:52.680Z,100.00
2023-03-27T15:54:34.960Z,100.00
2023-03-27T15:57:09.382Z,100.00
2023-03-27T15:59:52.870Z,100.00
2023-03-27T16:02:21.568Z,100.00
2023-03-27T16:04:56.654Z,100.00
2023-03-27T16:07:32.809Z,100.00
2023-03-27T16:10:06.791Z,100.00
2023-03-27T16:12:58.354Z,100.00
2023-03-27T16:15:38.022Z,100.00
2023-03-27T16:18:18.666Z,100.00
2023-03-27T16:20:45.349Z,100.00
2023-03-27T16:23:14.792Z,100.00
2023-03-27T16:25:41.602Z,99.68
2023-03-27T16:28:10.173Z,99.65
2023-03-27T16:30:39.588Z,98.77
2023-03-27T16:33:15.389Z,98.49
2023-03-27T16:35:42.595Z,98.41
2023-03-27T16:38:09.099Z,98.36
2023-03-27T16:40:35.912Z,97.21
2023-03-27T16:43:04.563Z,96.17
2023-03-27T16:45:31.556Z,94.54
2023-03-27T16:47:58.193Z,95.76
2023-03-27T16:50:26.795Z,95.80
2023-03-27T16:52:53.377Z,96.05
2023-03-27T16:55:19.938Z,95.31
2023-03-27T16:57:46.711Z,95.27
2023-03-27T17:00:15.537Z,95.87
2023-03-27T17:02:44.345Z,95.10
2023-03-27T17:05:11.462Z,95.03
2023-03-27T17:07:41.971Z,94.19
2023-03-27T17:10:10.158Z,93.45
2023-03-27T17:12:36.681Z,93.61
2023-03-27T17:15:03.631Z,92.35
2023-03-27T17:17:30.505Z,93.32
2023-03-27T17:19:57.265Z,93.92
2023-03-27T17:22:23.806Z,93.93
2023-03-27T17:24:56.755Z,94.42
2023-03-27T17:27:28.843Z,95.34
2023-03-27T17:29:57.975Z,94.56
2023-03-27T17:32:26.064Z,94.67
2023-03-27T17:34:52.938Z,95.45
2023-03-27T17:37:20.851Z,95.81
2023-03-27T17:39:47.537Z,95.93
2023-03-27T17:42:14.086Z,96.54
2023-03-27T17:44:41.488Z,97.20
2023-03-27T17:47:08.425Z,98.79
2023-03-27T17:49:35.332Z,99.96
2023-03-27T17:52:07.684Z,100.00
2023-03-27T17:54:34.865Z,100.00
2023-03-27T17:57:01.713Z,100.00
2023-03-27T17:59:30.361Z,100.00
2023-03-27T18:01:57.641Z,99.92
2023-03-27T18:04:26.215Z,98.38
2023-03-27T18:06:53.087Z,95.91
2023-03-27T18:09:23.356Z,95.88
2023-03-27T18:11:49.953Z,94.28
2023-03-27T18:14:16.552Z,95.00
2023-03-27T18:16:43.157Z,93.11
2023-03-27T18:19:09.939Z,93.20
2023-03-27T18:21:36.404Z,93.21
2023-03-27T18:24:03.499Z,92.67
2023-03-27T18:26:30.123Z,92.43
2023-03-27T18:29:00.109Z,92.53
2023-03-27T18:31:27.005Z,92.75
2023-03-27T18:33:53.507Z,90.69
2023-03-27T18:36:20.363Z,90.67
2023-03-27T18:38:49.145Z,89.96
2023-03-27T18:41:16.501Z,89.72
2023-03-27T18:43:42.951Z,88.94
2023-03-27T18:46:10.781Z,87.83
2023-03-27T18:48:37.347Z,86.65
2023-03-27T18:51:05.781Z,87.41
2023-03-27T18:53:32.678Z,85.32
2023-03-27T18:55:59.848Z,85.55
2023-03-27T18:58:28.125Z,85.64
2023-03-27T19:00:55.718Z,85.65
2023-03-27T19:03:24.578Z,86.36
2023-03-27T19:05:52.705Z,85.78
2023-03-27T19:08:21.372Z,86.49
2023-03-27T19:10:48.217Z,86.61
2023-03-27T19:13:14.747Z,87.13
2023-03-27T19:15:42.069Z,87.23
2023-03-27T19:18:11.308Z,87.42
2023-03-27T19:20:40.864Z,87.00
2023-03-27T19:23:07.702Z,87.27
2023-03-27T19:25:35.323Z,87.35
2023-03-27T19:28:02.979Z,87.52
2023-03-27T19:30:29.824Z,88.00
2023-03-27T19:32:58.190Z,87.22
2023-03-27T19:35:25.790Z,87.43
2023-03-27T19:37:52.334Z,87.27
2023-03-27T19:40:18.765Z,87.07
2023-03-27T19:42:45.388Z,87.27
2023-03-27T19:45:11.926Z,87.72
2023-03-27T19:47:38.475Z,86.90
2023-03-27T19:50:07.126Z,87.42
2023-03-27T19:52:33.614Z,86.94
2023-03-27T19:55:00.587Z,86.26
2023-03-27T19:57:27.451Z,85.76
2023-03-27T19:59:53.916Z,85.74
2023-03-27T20:02:20.949Z,85.78
2023-03-27T20:04:47.448Z,85.20
2023-03-27T20:07:13.948Z,85.42
2023-03-27T20:09:40.700Z,86.33
2023-03-27T20:12:07.434Z,86.09
2023-03-27T20:14:33.903Z,86.28
2023-03-27T20:17:00.581Z,87.11
2023-03-27T20:19:30.363Z,86.93
2023-03-27T20:22:00.316Z,87.47
2023-03-27T20:24:26.867Z,87.91
2023-03-27T20:26:56.993Z,88.46
2023-03-27T20:29:26.878Z,88.18
2023-03-27T20:31:53.839Z,88.89
2023-03-27T20:34:22.365Z,88.92
2023-03-27T20:36:53.174Z,89.04
2023-03-27T20:39:20.733Z,89.33
2023-03-27T20:41:47.311Z,88.79
2023-03-27T20:44:19.784Z,88.82
2023-03-27T20:46:47.824Z,89.11
2023-03-27T20:49:40.181Z,89.01
2023-03-27T20:52:12.525Z,88.47
2023-03-27T20:54:41.194Z,88.62
2023-03-27T20:57:08.320Z,88.85
2023-03-27T20:59:35.371Z,88.38
2023-03-27T21:02:02.321Z,88.26
2023-03-27T21:04:31.478Z,88.86
2023-03-27T21:06:58.521Z,89.32
2023-03-27T21:09:26.734Z,88.65
2023-03-27T21:11:54.925Z,87.80
2023-03-27T21:14:25.274Z,87.70
2023-03-27T21:16:51.827Z,87.96
2023-03-27T21:19:18.491Z,87.81
2023-03-27T21:21:45.153Z,87.28
2023-03-27T21:24:11.773Z,87.92
2023-03-27T21:26:39.489Z,87.35
2023-03-27T21:29:06.052Z,87.67
2023-03-27T21:31:32.535Z,87.36
2023-03-27T21:33:59.132Z,88.21
2023-03-27T21:36:29.747Z,88.70
2023-03-27T21:38:56.589Z,88.96
2023-03-27T21:41:26.753Z,88.95
2023-03-27T21:43:53.296Z,89.36
2023-03-27T21:46:19.795Z,89.44
2023-03-27T21:48:49.160Z,89.82
2023-03-27T21:51:15.797Z,90.08
2023-03-27T21:53:42.573Z,90.39
2023-03-27T21:56:09.237Z,89.71
2023-03-27T21:58:35.820Z,90.02
2023-03-27T22:01:02.363Z,90.16
2023-03-27T22:03:29.523Z,90.13
2023-03-27T22:08:36.817Z,90.15
2023-03-27T22:11:03.548Z,89.16
2023-03-27T22:13:30.197Z,89.09
2023-03-27T22:15:57.002Z,89.50
2023-03-27T22:18:24.754Z,89.71
2023-03-27T22:20:51.299Z,89.97
2023-03-27T22:23:17.820Z,90.29
2023-03-27T22:25:52.442Z,90.58
2023-03-27T22:28:18.910Z,89.97
2023-03-27T22:30:45.462Z,91.05
2023-03-27T22:33:11.910Z,90.96
2023-03-27T22:35:38.405Z,91.08
2023-03-27T22:38:04.914Z,91.46
2023-03-27T22:40:31.599Z,90.89
2023-03-27T22:42:58.040Z,91.59
2023-03-27T22:45:24.532Z,91.32
2023-03-27T22:47:51.135Z,91.93
2023-03-27T22:50:17.743Z,91.71
2023-03-27T22:52:44.239Z,91.43
2023-03-27T22:55:10.765Z,91.59
2023-03-27T22:57:37.681Z,91.59
2023-03-27T23:00:06.880Z,91.63
2023-03-27T23:02:33.468Z,92.25
2023-03-27T23:05:00.592Z,92.66
2023-03-27T23:07:27.111Z,92.46
2023-03-27T23:09:53.601Z,92.69
2023-03-27T23:12:20.270Z,93.85
2023-03-27T23:14:46.712Z,93.37
2023-03-27T23:17:13.227Z,93.87
2023-03-27T23:19:39.736Z,94.43
2023-03-27T23:22:06.231Z,94.54
2023-03-27T23:24:32.698Z,96.50
2023-03-27T23:26:59.187Z,97.42
2023-03-27T23:29:25.748Z,98.76
2023-03-27T23:31:52.513Z,99.65
2023-03-27T23:34:18.989Z,99.86
2023-03-27T23:36:45.815Z,99.31
2023-03-27T23:39:12.253Z,99.11
2023-03-27T23:41:38.795Z,99.65
2023-03-27T23:44:05.414Z,100.00
2023-03-27T23:46:32.657Z,99.66
2023-03-27T23:48:59.518Z,98.52
2023-03-27T23:51:26.081Z,97.99
2023-03-27T23:53:52.575Z,95.69
2023-03-27T23:56:19.098Z,95.73
2023-03-27T23:58:46.784Z,95.58
